Time;durP1;ratioP1;P1;durP2;ratioP2;P2;SDS_P1;SDS_P2;PMS_P1;PMS_P2;Temp;Humidity;BMP_temperature;BMP_pressure;BME280_temperature;BME280_humidity;BME280_pressure;Samples;Min_cycle;Max_cycle;Signal;HPM_P1;HPM_P2
2021/04/20 00:02:27;;;;;;;4.72;3.60;;;22.90;55.20;;;;;;5012078;28;20037;-78
2021/04/20 00:04:54;;;;;;;10.27;3.85;;;22.80;55.40;;;;;;5011188;28;20431;-76
2021/04/20 00:07:22;;;;;;;5.45;3.30;;;22.60;56.20;;;;;;5008815;28;20041;-75
2021/04/20 00:09:49;;;;;;;7.30;3.70;;;22.70;54.40;;;;;;5011463;28;20021;-75
2021/04/20 00:12:16;;;;;;;6.95;4.15;;;23.70;55.20;;;;;;5014554;28;20026;-75
2021/04/20 00:14:44;;;;;;;5.63;3.03;;;24.70;52.70;;;;;;5013301;28;20034;-78
2021/04/20 00:17:11;;;;;;;4.72;3.03;;;25.00;49.10;;;;;;5014107;28;20089;-75
2021/04/20 00:19:39;;;;;;;4.25;2.60;;;25.00;48.50;;;;;;5009308;28;20041;-75
2021/04/20 00:22:06;;;;;;;4.57;2.40;;;25.00;47.30;;;;;;5008073;28;20025;-73
2021/04/20 00:24:34;;;;;;;4.32;2.90;;;24.70;46.60;;;;;;5003383;28;20036;-72
2021/04/20 00:27:01;;;;;;;4.65;2.58;;;25.30;50.40;;;;;;5007098;28;20386;-73
2021/04/20 00:29:28;;;;;;;5.82;2.95;;;25.30;47.40;;;;;;5004446;28;20037;-75
2021/04/20 00:31:58;;;;;;;6.80;2.50;;;25.10;48.80;;;;;;5010453;28;20042;-82
2021/04/20 00:34:27;;;;;;;8.00;2.45;;;25.20;47.30;;;;;;5010133;28;20088;-81
2021/04/20 00:36:58;;;;;;;2.88;2.00;;;25.10;47.40;;;;;;5009532;28;20053;-82
2021/04/20 00:39:25;;;;;;;3.03;2.47;;;25.40;47.00;;;;;;5007483;28;20488;-81
2021/04/20 00:42:07;;;;;;;6.22;2.53;;;25.50;47.90;;;;;;5010239;28;20125;-85
2021/04/20 00:44:36;;;;;;;5.10;2.45;;;25.50;46.90;;;;;;5010190;28;20060;-83
2021/04/20 00:47:04;;;;;;;3.33;2.25;;;25.30;47.30;;;;;;5013500;28;20121;-85
2021/04/20 00:49:32;;;;;;;6.05;1.80;;;25.10;48.80;;;;;;5012181;28;20092;-83
2021/04/20 00:51:59;;;;;;;4.80;2.03;;;24.70;48.10;;;;;;5016082;28;20034;-83
2021/04/20 00:54:28;;;;;;;7.68;2.30;;;24.40;44.50;;;;;;5009327;28;20026;-82
2021/04/20 00:56:55;;;;;;;4.68;2.30;;;24.30;48.80;;;;;;5002889;28;20344;-83
2021/04/20 00:59:23;;;;;;;3.38;1.98;;;24.00;46.40;;;;;;5006570;28;20051;-81
2021/04/20 01:01:51;;;;;;;4.07;2.20;;;23.40;48.20;;;;;;5009095;28;20022;-82
2021/04/20 01:04:20;;;;;;;4.07;2.10;;;23.20;49.20;;;;;;5009415;28;20380;-83
2021/04/20 01:06:53;;;;;;;3.05;1.80;;;23.30;50.60;;;;;;5029644;28;20034;-82
2021/04/20 01:09:23;;;;;;;6.55;2.53;;;23.40;48.70;;;;;;5031939;28;20436;-81
2021/04/20 01:11:51;;;;;;;5.35;1.88;;;23.40;50.20;;;;;;5028912;28;20073;-80
2021/04/20 01:14:19;;;;;;;2.42;1.65;;;23.40;46.80;;;;;;5032594;28;20022;-81
2021/04/20 01:16:47;;;;;;;2.85;1.58;;;23.40;48.50;;;;;;5028917;28;20044;-80
2021/04/20 01:19:20;;;;;;;8.77;1.90;;;23.40;46.20;;;;;;5020842;28;20112;-80
2021/04/20 01:21:49;;;;;;;2.30;1.70;;;23.70;48.10;;;;;;5011446;28;20856;-82
2021/04/20 01:24:29;;;;;;;2.20;1.50;;;23.60;47.20;;;;;;5007574;28;20388;-80
2021/04/20 01:26:58;;;;;;;3.90;1.50;;;24.00;47.60;;;;;;5007368;28;20029;-80
2021/04/20 01:29:28;;;;;;;3.80;1.70;;;24.50;48.30;;;;;;5008111;28;20052;-81
2021/04/20 01:31:56;;;;;;;4.63;1.52;;;24.80;46.20;;;;;;5005669;28;20061;-80
2021/04/20 01:34:23;;;;;;;2.80;1.50;;;24.60;46.10;;;;;;5005815;28;20018;-81
2021/04/20 01:36:51;;;;;;;2.63;1.27;;;24.30;46.60;;;;;;5006707;28;20026;-81
2021/04/20 01:39:18;;;;;;;4.68;1.40;;;24.40;46.60;;;;;;5004507;28;20076;-82
2021/04/20 01:41:46;;;;;;;2.95;1.65;;;24.20;47.10;;;;;;5007894;28;20343;-81
2021/04/20 01:44:14;;;;;;;3.38;1.77;;;24.10;48.90;;;;;;5006349;28;20029;-81
2021/04/20 01:46:42;;;;;;;3.88;1.90;;;23.90;47.60;;;;;;5004234;28;20125;-80
2021/04/20 01:49:09;;;;;;;4.15;2.13;;;23.90;47.80;;;;;;5004572;28;20022;-80
2021/04/20 01:51:37;;;;;;;4.57;2.10;;;24.10;49.10;;;;;;5002041;28;20030;-78
2021/04/20 01:54:04;;;;;;;4.38;1.70;;;24.10;47.20;;;;;;5004718;28;20025;-79
2021/04/20 01:56:32;;;;;;;6.75;2.00;;;24.70;48.50;;;;;;5004319;28;20026;-78
2021/04/20 01:59:00;;;;;;;3.53;1.73;;;25.40;45.70;;;;;;5005123;28;20029;-78
2021/04/20 02:01:29;;;;;;;2.50;1.38;;;25.50;45.10;;;;;;5004882;28;20030;-78
2021/04/20 02:03:57;;;;;;;4.53;1.67;;;25.20;46.80;;;;;;5005035;28;20121;-78
2021/04/20 02:06:26;;;;;;;4.82;1.90;;;25.30;46.50;;;;;;5005928;28;20045;-81
2021/04/20 02:08:55;;;;;;;4.30;1.85;;;25.40;45.60;;;;;;5002916;28;20049;-80
2021/04/20 02:11:25;;;;;;;3.80;1.58;;;25.70;47.20;;;;;;4999089;28;20064;-80
2021/04/20 02:13:53;;;;;;;5.22;1.70;;;25.60;44.70;;;;;;5005236;28;20061;-80
2021/04/20 02:16:22;;;;;;;3.78;1.58;;;25.30;46.00;;;;;;5001429;28;20073;-78
2021/04/20 02:18:53;;;;;;;2.92;1.13;;;25.00;45.60;;;;;;5006569;28;20579;-79
2021/04/20 02:21:21;;;;;;;4.40;1.30;;;24.70;46.00;;;;;;5011878;28;20052;-80
2021/04/20 02:23:50;;;;;;;6.43;1.98;;;24.40;46.00;;;;;;5014659;28;20026;-79
2021/04/20 02:26:40;;;;;;;3.92;1.58;;;23.90;47.30;;;;;;5009105;28;20087;-80
2021/04/20 02:29:10;;;;;;;2.45;1.38;;;23.80;48.50;;;;;;5005682;28;20053;-81
2021/04/20 02:31:40;;;;;;;3.90;1.80;;;23.60;49.60;;;;;;5004915;28;20040;-81
2021/04/20 02:34:11;;;;;;;3.97;1.40;;;23.80;47.00;;;;;;5006171;28;20021;-83
2021/04/20 02:36:41;;;;;;;5.50;1.40;;;24.40;45.40;;;;;;5007592;28;20045;-80
2021/04/20 02:39:12;;;;;;;3.90;1.30;;;24.90;45.40;;;;;;5007834;28;20050;-80
2021/04/20 02:41:46;;;;;;;4.70;1.63;;;24.90;47.00;;;;;;5005942;28;20598;-81
2021/04/20 02:44:14;;;;;;;2.65;1.20;;;25.00;45.00;;;;;;5005225;28;20109;-80
2021/04/20 02:46:44;;;;;;;3.47;1.45;;;24.70;45.00;;;;;;5002610;28;20084;-80
2021/04/20 02:49:12;;;;;;;3.85;1.60;;;24.50;47.50;;;;;;5008010;28;20052;-79
2021/04/20 02:51:41;;;;;;;5.32;1.90;;;24.60;46.40;;;;;;5006612;28;20104;-82
2021/04/20 02:54:10;;;;;;;4.15;1.48;;;24.60;45.70;;;;;;5008150;28;20033;-80
2021/04/20 02:56:40;;;;;;;2.55;1.77;;;24.60;47.20;;;;;;5005200;28;21471;-78
2021/04/20 02:59:10;;;;;;;3.58;1.85;;;24.60;46.00;;;;;;5002967;28;20037;-80
2021/04/20 03:01:41;;;;;;;4.65;1.38;;;24.20;46.50;;;;;;5001801;28;20531;-81
2021/04/20 03:04:14;;;;;;;3.25;1.58;;;24.20;46.00;;;;;;5002992;28;20097;-80
2021/04/20 03:06:42;;;;;;;5.25;1.35;;;24.20;46.50;;;;;;5005778;28;20046;-77
2021/04/20 03:09:11;;;;;;;4.90;1.63;;;24.30;46.80;;;;;;5004847;28;20128;-80
2021/04/20 03:11:42;;;;;;;2.50;1.40;;;24.20;46.30;;;;;;5004733;28;20030;-78
2021/04/20 03:14:09;;;;;;;2.83;1.10;;;23.90;45.30;;;;;;5003738;28;20030;-78
2021/04/20 03:16:37;;;;;;;3.45;1.13;;;23.70;45.80;;;;;;5007584;28;20038;-80
2021/04/20 03:19:05;;;;;;;6.60;1.55;;;23.50;48.70;;;;;;5008735;28;20036;-78
2021/04/20 03:21:33;;;;;;;3.20;1.60;;;23.40;49.70;;;;;;5007249;28;20026;-78
2021/04/20 03:24:03;;;;;;;3.00;1.50;;;23.30;48.20;;;;;;5009283;28;20192;-79
2021/04/20 03:26:41;;;;;;;2.78;1.23;;;23.50;50.70;;;;;;5003703;28;20133;-79
2021/04/20 03:29:10;;;;;;;6.75;1.42;;;23.60;49.10;;;;;;5006610;28;20040;-80
2021/04/20 03:31:42;;;;;;;2.83;1.30;;;23.60;47.80;;;;;;5000047;28;20022;-80
2021/04/20 03:34:15;;;;;;;2.30;1.25;;;23.50;49.20;;;;;;5004386;28;20117;-81
2021/04/20 03:36:53;;;;;;;2.88;1.70;;;23.40;47.70;;;;;;5020553;28;20676;-80
2021/04/20 03:39:22;;;;;;;10.10;2.15;;;23.40;48.20;;;;;;5006541;28;20403;-79
2021/04/20 03:41:59;;;;;;;2.20;1.00;;;23.20;48.30;;;;;;5003329;28;20068;-82
2021/04/20 03:44:30;;;;;;;2.53;1.17;;;23.00;49.70;;;;;;5007179;28;20033;-79
2021/04/20 03:47:03;;;;;;;6.30;1.52;;;22.90;49.40;;;;;;5007038;28;20088;-78
2021/04/20 03:49:41;;;;;;;6.88;1.05;;;22.90;49.40;;;;;;5005803;28;20022;-83
2021/04/20 03:52:33;;;;;;;6.82;2.38;;;22.90;51.40;;;;;;5008691;28;20026;-80
2021/04/20 03:55:03;;;;;;;5.47;1.80;;;23.00;50.70;;;;;;5007745;28;20073;-79
2021/04/20 03:57:35;;;;;;;3.35;1.20;;;23.00;50.90;;;;;;5008282;28;20034;-79
2021/04/20 04:00:06;;;;;;;2.35;1.30;;;22.90;50.60;;;;;;5009567;28;20037;-77
2021/04/20 04:02:38;;;;;;;6.55;1.73;;;22.90;50.80;;;;;;5005847;28;20026;-82
2021/04/20 04:05:08;;;;;;;2.45;1.00;;;22.80;51.10;;;;;;5007503;28;20057;-77
2021/04/20 04:07:38;;;;;;;1.55;1.13;;;22.70;51.10;;;;;;5011998;28;20098;-77
2021/04/20 04:10:06;;;;;;;6.30;1.10;;;22.70;51.50;;;;;;5018449;28;20120;-79
2021/04/20 04:12:39;;;;;;;2.80;1.42;;;22.80;50.10;;;;;;5018357;28;20025;-77
2021/04/20 04:15:09;;;;;;;4.60;1.30;;;22.90;49.60;;;;;;5015550;28;20038;-77
2021/04/20 04:17:39;;;;;;;5.03;1.60;;;22.90;49.80;;;;;;5010926;28;20376;-77
2021/04/20 04:20:08;;;;;;;2.83;1.25;;;23.10;50.20;;;;;;5006498;28;20191;-77
2021/04/20 04:22:44;;;;;;;3.53;1.10;;;23.10;49.30;;;;;;5008849;28;20030;-75
2021/04/20 04:25:13;;;;;;;3.00;0.90;;;23.00;48.30;;;;;;5006175;28;20030;-75
2021/04/20 04:27:45;;;;;;;2.25;1.40;;;23.10;48.80;;;;;;5004869;28;20045;-74
2021/04/20 04:30:15;;;;;;;2.05;0.93;;;23.50;47.90;;;;;;5004618;28;20472;-73
2021/04/20 04:32:44;;;;;;;5.10;1.30;;;23.70;47.10;;;;;;5009165;28;20126;-76
2021/04/20 04:35:12;;;;;;;1.10;0.90;;;23.90;46.40;;;;;;5003352;28;20441;-74
2021/04/20 04:37:41;;;;;;;2.08;0.98;;;24.00;46.40;;;;;;5006386;28;20567;-73
2021/04/20 04:40:10;;;;;;;2.75;0.90;;;24.10;45.20;;;;;;5004497;28;20148;-76
2021/04/20 04:42:38;;;;;;;3.25;0.75;;;24.40;45.80;;;;;;5007874;28;20034;-78
2021/04/20 04:45:08;;;;;;;2.58;0.77;;;24.50;44.60;;;;;;5005812;28;20445;-75
2021/04/20 04:47:38;;;;;;;1.92;0.85;;;24.50;43.80;;;;;;5003315;28;20104;-75
2021/04/20 04:50:09;;;;;;;2.60;1.02;;;24.60;44.20;;;;;;5007633;28;20057;-72
2021/04/20 04:52:38;;;;;;;3.08;0.80;;;24.90;43.90;;;;;;5007803;28;20030;-71
2021/04/20 04:55:07;;;;;;;4.32;0.82;;;24.60;42.80;;;;;;5003966;28;20028;-79
2021/04/20 04:57:35;;;;;;;4.10;0.90;;;24.10;44.20;;;;;;5005720;28;21045;-77
2021/04/20 05:00:07;;;;;;;2.08;0.90;;;23.90;43.80;;;;;;5008203;28;20034;-73
2021/04/20 05:02:40;;;;;;;1.75;0.63;;;23.70;45.40;;;;;;5007811;28;20057;-73
2021/04/20 05:05:14;;;;;;;3.65;1.10;;;23.60;46.30;;;;;;5006028;28;20042;-75
2021/04/20 05:07:43;;;;;;;2.60;0.90;;;23.60;46.40;;;;;;5005543;28;20408;-71
2021/04/20 05:10:13;;;;;;;6.53;1.42;;;23.50;46.20;;;;;;5002999;28;20022;-74
2021/04/20 05:12:41;;;;;;;2.35;0.77;;;23.40;46.80;;;;;;5005581;28;20088;-75
2021/04/20 05:15:15;;;;;;;4.30;0.82;;;23.20;46.60;;;;;;5002775;28;20097;-72
2021/04/20 05:17:46;;;;;;;2.65;0.82;;;23.30;45.60;;;;;;5003193;28;20029;-72
2021/04/20 05:20:21;;;;;;;1.48;0.60;;;23.60;45.50;;;;;;5005030;28;20386;-75
2021/04/20 05:22:49;;;;;;;;;;;24.00;43.60;;;;;;5005469;28;20108;-78
2021/04/20 05:25:19;;;;;;;2.92;0.88;;;23.90;44.60;;;;;;5004462;28;19979;-75
2021/04/20 05:27:49;;;;;;;4.85;0.77;;;23.90;44.20;;;;;;5003142;28;20510;-73
2021/04/20 05:30:16;;;;;;;2.38;0.70;;;23.80;43.70;;;;;;5004702;28;20041;-77
2021/04/20 05:32:52;;;;;;;1.70;0.85;;;23.60;44.20;;;;;;5006933;28;20109;-72
2021/04/20 05:35:22;;;;;;;4.50;1.38;;;23.40;45.50;;;;;;5002379;28;20040;-73
2021/04/20 05:37:50;;;;;;;2.65;0.60;;;23.20;45.30;;;;;;5003130;28;20056;-72
2021/04/20 05:40:19;;;;;;;3.58;0.70;;;23.20;46.10;;;;;;5007058;28;20033;-73
2021/04/20 05:42:47;;;;;;;2.05;0.75;;;23.20;45.90;;;;;;5005870;28;20041;-74
2021/04/20 05:45:16;;;;;;;2.92;0.52;;;23.10;45.50;;;;;;5002864;28;20022;-74
2021/04/20 05:47:45;;;;;;;3.78;0.80;;;23.00;46.20;;;;;;5002918;28;20050;-75
2021/04/20 05:50:33;;;;;;;3.38;1.02;;;23.00;46.70;;;;;;5003637;28;20130;-77
2021/04/20 05:53:05;;;;;;;1.67;1.08;;;22.80;47.60;;;;;;5007660;28;20030;-73
2021/04/20 05:55:32;;;;;;;4.95;1.08;;;22.60;49.00;;;;;;5006644;28;20372;-73
2021/04/20 05:58:00;;;;;;;8.65;1.38;;;22.60;49.60;;;;;;5006354;28;20034;-72
2021/04/20 06:00:27;;;;;;;2.08;0.85;;;22.40;49.30;;;;;;5006214;28;20026;-72
2021/04/20 06:02:56;;;;;;;3.42;1.00;;;22.30;50.00;;;;;;5007066;28;20120;-74
2021/04/20 06:05:26;;;;;;;2.70;0.90;;;22.30;49.60;;;;;;5005339;28;20476;-70
2021/04/20 06:08:05;;;;;;;1.90;0.82;;;22.30;50.30;;;;;;5004433;28;20061;-73
2021/04/20 06:10:32;;;;;;;3.75;1.42;;;22.30;50.80;;;;;;5007506;28;20037;-74
2021/04/20 06:13:00;;;;;;;3.60;1.33;;;22.30;51.00;;;;;;5006016;28;20506;-72
2021/04/20 06:15:28;;;;;;;3.40;1.10;;;22.20;52.40;;;;;;5003391;28;20057;-74
2021/04/20 06:17:56;;;;;;;7.20;1.63;;;22.20;52.50;;;;;;5003436;28;20041;-72
2021/04/20 06:20:25;;;;;;;2.05;1.15;;;22.10;52.20;;;;;;5002794;28;20026;-73
2021/04/20 06:22:54;;;;;;;7.32;1.30;;;22.10;52.80;;;;;;5003896;28;20037;-73
2021/04/20 06:25:22;;;;;;;3.22;1.08;;;21.90;52.60;;;;;;5005121;28;20048;-73
2021/04/20 06:27:50;;;;;;;4.15;1.10;;;21.80;53.30;;;;;;5007060;28;20125;-74
2021/04/20 06:30:20;;;;;;;7.32;1.88;;;21.80;53.90;;;;;;5008250;28;20714;-76
2021/04/20 06:32:49;;;;;;;4.32;1.58;;;21.80;53.90;;;;;;5003414;28;20044;-74
2021/04/20 06:35:22;;;;;;;6.65;1.67;;;21.70;53.40;;;;;;5001898;28;20481;-69
2021/04/20 06:37:52;;;;;;;3.40;1.20;;;21.70;54.30;;;;;;5004362;28;20052;-74
2021/04/20 06:40:41;;;;;;;5.38;1.35;;;21.70;54.50;;;;;;5003251;28;20101;-75
2021/04/20 06:43:11;;;;;;;3.28;1.40;;;21.60;54.50;;;;;;5006012;28;20038;-74
2021/04/20 06:45:47;;;;;;;4.28;1.48;;;21.60;55.00;;;;;;5002541;28;20459;-73
2021/04/20 06:48:27;;;;;;;;;;;21.50;55.20;;;;;;5018862;28;20076;-74
2021/04/20 06:50:59;;;;;;;5.68;1.50;;;21.50;55.30;;;;;;5018704;28;20325;-75
2021/04/20 06:53:38;;;;;;;3.42;1.52;;;21.50;55.80;;;;;;5004849;28;20412;-74
2021/04/20 06:56:29;;;;;;;4.65;1.40;;;21.30;56.20;;;;;;5002197;28;20493;-75
2021/04/20 06:59:24;;;;;;;6.05;1.77;;;21.20;57.00;;;;;;5003577;28;20037;-77
2021/04/20 07:02:01;;;;;;;2.38;1.40;;;21.10;57.10;;;;;;5003020;28;20034;-77
2021/04/20 07:04:41;;;;;;;4.30;1.60;;;21.10;57.80;;;;;;5004319;28;20038;-77
2021/04/20 07:07:27;;;;;;;5.90;1.65;;;21.00;58.10;;;;;;5001307;28;20504;-76
2021/04/20 07:10:20;;;;;;;3.63;1.50;;;21.00;58.80;;;;;;5003100;28;20121;-74
2021/04/20 07:12:49;;;;;;;5.07;1.42;;;21.00;59.30;;;;;;4994693;28;20121;-77
2021/04/20 07:15:21;;;;;;;4.68;1.60;;;21.00;59.30;;;;;;5004066;28;21907;-75
2021/04/20 07:18:06;;;;;;;2.72;1.58;;;21.00;59.70;;;;;;5004900;28;20022;-74
2021/04/20 07:21:10;;;;;;;9.23;1.60;;;20.90;60.00;;;;;;5003157;28;20041;-75
2021/04/20 07:24:04;;;;;;;5.85;1.98;;;20.90;60.30;;;;;;5004275;28;20026;-75
2021/04/20 07:26:37;;;;;;;7.93;2.15;;;20.80;60.80;;;;;;5003147;28;20038;-74
2021/04/20 07:29:26;;;;;;;7.75;1.90;;;20.70;61.10;;;;;;5000237;28;20033;-77
2021/04/20 07:32:30;;;;;;;4.25;1.95;;;20.50;61.80;;;;;;5003570;28;20057;-76
2021/04/20 07:35:21;;;;;;;6.38;2.30;;;20.40;62.20;;;;;;5007913;28;20041;-76
2021/04/20 07:38:19;;;;;;;6.72;1.95;;;20.30;63.40;;;;;;5005167;28;20033;-74
2021/04/20 07:41:05;;;;;;;5.45;3.05;;;20.10;63.40;;;;;;5003706;28;20042;-75
2021/04/20 07:43:53;;;;;;;7.38;2.65;;;20.00;63.70;;;;;;5006063;28;20032;-74
2021/04/20 07:46:47;;;;;;;4.95;2.20;;;20.00;63.60;;;;;;4977785;28;20563;-73
2021/04/20 07:49:40;;;;;;;5.72;2.40;;;19.90;63.70;;;;;;5007364;28;20072;-78
2021/04/20 07:52:33;;;;;;;5.72;2.30;;;20.00;63.30;;;;;;5003507;28;21107;-76
2021/04/20 07:55:30;;;;;;;5.57;2.50;;;19.80;63.50;;;;;;5010315;28;20028;-74
2021/04/20 07:58:08;;;;;;;7.63;3.13;;;19.70;63.90;;;;;;5000518;28;20042;-72
2021/04/20 08:01:10;;;;;;;6.22;2.83;;;19.60;64.20;;;;;;5008516;28;20037;-73
2021/04/20 08:04:20;;;;;;;4.75;2.53;;;19.60;64.50;;;;;;4989394;28;20136;-74
2021/04/20 08:06:52;;;;;;;4.43;1.98;;;19.50;64.40;;;;;;5004754;28;20058;-74
2021/04/20 08:09:29;;;;;;;5.85;1.90;;;19.40;64.10;;;;;;5005006;28;20392;-74
2021/04/20 08:12:06;;;;;;;6.18;2.05;;;19.40;64.10;;;;;;5008921;28;20654;-75
2021/04/20 08:14:55;;;;;;;4.60;2.55;;;19.40;64.10;;;;;;5006929;28;20045;-75
2021/04/20 08:17:47;;;;;;;3.63;1.75;;;19.40;63.90;;;;;;5005301;28;20388;-73
2021/04/20 08:20:26;;;;;;;3.47;1.92;;;19.40;62.70;;;;;;4997373;28;20045;-75
2021/04/20 08:22:56;;;;;;;5.20;1.60;;;19.30;62.30;;;;;;5006286;28;20034;-73
2021/04/20 08:25:45;;;;;;;5.07;1.70;;;19.40;62.20;;;;;;5001586;28;20026;-77
2021/04/20 08:28:31;;;;;;;7.75;1.85;;;19.40;61.70;;;;;;5007127;28;20057;-76
2021/04/20 08:31:21;;;;;;;3.72;1.45;;;19.40;60.60;;;;;;5004902;28;20563;-75
2021/04/20 08:33:57;;;;;;;2.90;1.13;;;19.40;59.20;;;;;;5006953;28;20570;-78
2021/04/20 08:36:40;;;;;;;3.70;1.58;;;19.50;58.70;;;;;;5005223;28;20151;-77
2021/04/20 08:39:21;;;;;;;3.40;1.17;;;19.50;59.20;;;;;;5002872;28;20026;-74
2021/04/20 08:41:57;;;;;;;2.35;1.13;;;19.50;58.70;;;;;;5005853;28;20026;-75
2021/04/20 08:44:30;;;;;;;3.00;1.30;;;19.40;59.50;;;;;;5003705;28;20033;-73
2021/04/20 08:47:26;;;;;;;3.92;1.27;;;19.40;59.70;;;;;;5005778;28;20038;-72
2021/04/20 08:50:18;;;;;;;2.92;1.23;;;19.40;59.30;;;;;;5003386;28;20025;-71
2021/04/20 08:53:04;;;;;;;5.07;1.58;;;19.40;59.80;;;;;;5003775;28;20022;-73
2021/04/20 08:55:52;;;;;;;4.07;1.33;;;19.40;60.00;;;;;;5004464;28;20105;-73
2021/04/20 08:58:43;;;;;;;6.05;1.63;;;19.30;60.10;;;;;;5006935;28;20037;-74
2021/04/20 09:01:35;;;;;;;4.63;1.73;;;19.30;60.80;;;;;;5004811;28;20026;-72
2021/04/20 09:04:39;;;;;;;3.55;1.40;;;19.20;60.50;;;;;;5001437;28;20065;-72
2021/04/20 09:07:26;;;;;;;2.72;1.42;;;19.10;61.40;;;;;;5004944;28;20300;-71
2021/04/20 09:09:55;;;;;;;3.13;1.25;;;19.10;62.20;;;;;;5001782;28;20174;-72
2021/04/20 09:12:24;;;;;;;3.60;1.70;;;19.10;62.50;;;;;;5004687;28;20018;-72
2021/04/20 09:14:54;;;;;;;4.75;1.98;;;19.10;62.40;;;;;;5001350;28;20432;-71
2021/04/20 09:17:31;;;;;;;2.45;1.45;;;19.00;63.10;;;;;;5005918;28;20952;-72
2021/04/20 09:20:06;;;;;;;4.05;1.63;;;18.90;61.80;;;;;;5001980;28;20041;-73
2021/04/20 09:22:53;;;;;;;5.68;1.80;;;18.90;62.00;;;;;;5006970;28;20026;-71
2021/04/20 09:25:23;;;;;;;;;;;18.80;62.60;;;;;;5004083;28;20065;-71
2021/04/20 09:28:06;;;;;;;4.13;1.55;;;18.80;62.90;;;;;;5001101;28;19913;-75
2021/04/20 09:31:06;;;;;;;5.30;2.25;;;18.80;63.10;;;;;;5005114;28;20500;-70
2021/04/20 09:33:54;;;;;;;5.35;2.22;;;18.80;63.00;;;;;;5002904;28;20034;-72
2021/04/20 09:36:23;;;;;;;5.05;1.98;;;18.60;63.50;;;;;;5004559;28;20053;-73
2021/04/20 09:38:51;;;;;;;7.00;1.70;;;18.60;64.00;;;;;;4999634;28;20348;-73
2021/04/20 09:41:35;;;;;;;5.50;1.98;;;18.70;63.50;;;;;;5003641;28;20387;-71
2021/04/20 09:44:14;;;;;;;3.72;1.75;;;18.70;63.90;;;;;;5001829;28;20056;-75
2021/04/20 09:47:09;;;;;;;5.05;2.30;;;18.70;62.90;;;;;;5002844;28;20149;-72
2021/04/20 09:49:59;;;;;;;4.97;2.05;;;18.70;62.90;;;;;;5002105;28;20069;-72
2021/04/20 09:52:50;;;;;;;5.70;2.70;;;18.60;63.50;;;;;;4999676;28;20775;-72
2021/04/20 09:55:26;;;;;;;4.88;2.85;;;18.60;64.30;;;;;;5003033;28;20527;-74
2021/04/20 09:57:56;;;;;;;4.78;2.53;;;18.50;64.90;;;;;;5001390;28;20081;-72
2021/04/20 10:00:25;;;;;;;4.93;2.22;;;18.30;65.80;;;;;;5011465;28;20380;-80
2021/04/20 10:03:14;;;;;;;4.95;1.63;;;18.20;66.00;;;;;;5016718;28;20042;-84
2021/04/20 10:06:00;;;;;;;4.80;1.83;;;18.20;66.40;;;;;;5015110;28;20073;-88
2021/04/20 10:08:34;;;;;;;4.85;1.60;;;18.20;66.20;;;;;;5013379;28;20018;-82
2021/04/20 10:11:46;;;;;;;4.35;1.83;;;18.10;66.80;;;;;;5012435;28;20045;-81
2021/04/20 10:14:25;;;;;;;4.20;1.80;;;18.10;66.30;;;;;;4971164;28;20582;-77
2021/04/20 10:17:14;;;;;;;3.95;1.90;;;18.10;66.80;;;;;;5004337;28;20033;-81
2021/04/20 10:19:59;;;;;;;5.28;2.25;;;18.00;67.20;;;;;;5011392;28;20029;-81
2021/04/20 10:22:41;;;;;;;5.15;2.10;;;17.90;67.80;;;;;;5006022;28;20133;-80
2021/04/20 10:25:18;;;;;;;2.67;2.10;;;17.80;68.40;;;;;;5007671;28;20038;-79
2021/04/20 10:27:49;;;;;;;4.53;1.88;;;17.70;69.70;;;;;;5010561;28;20388;-80
2021/04/20 10:30:21;;;;;;;3.10;1.70;;;17.50;69.90;;;;;;5011647;28;20037;-79
2021/04/20 10:32:53;;;;;;;3.47;2.28;;;17.50;68.80;;;;;;5011168;28;20124;-77
2021/04/20 10:35:33;;;;;;;5.13;1.70;;;17.50;69.80;;;;;;5008126;28;20037;-80
2021/04/20 10:38:09;;;;;;;3.45;2.25;;;17.40;70.50;;;;;;5008957;28;20034;-78
2021/04/20 10:40:41;;;;;;;2.60;2.35;;;17.20;70.20;;;;;;5022544;28;20441;-75
2021/04/20 10:43:16;;;;;;;5.18;2.33;;;17.20;70.40;;;;;;5007946;28;20034;-79
2021/04/20 10:45:45;;;;;;;4.82;2.47;;;17.10;70.20;;;;;;5006497;28;20356;-75
2021/04/20 10:48:23;;;;;;;5.38;2.47;;;17.20;70.70;;;;;;5012193;28;20467;-76
2021/04/20 10:50:53;;;;;;;6.15;2.22;;;17.10;70.90;;;;;;5008453;28;20519;-76
2021/04/20 10:53:21;;;;;;;3.72;2.17;;;17.00;71.60;;;;;;5009672;28;20056;-77
2021/04/20 10:56:06;;;;;;;3.85;2.35;;;16.90;72.60;;;;;;5008987;28;20155;-75
2021/04/20 10:58:35;;;;;;;5.22;2.20;;;17.00;69.80;;;;;;5011498;28;20030;-78
2021/04/20 11:01:03;;;;;;;7.43;2.13;;;17.00;70.50;;;;;;5017018;28;20041;-78
2021/04/20 11:03:36;;;;;;;3.22;2.25;;;16.90;71.30;;;;;;5012190;28;20033;-74
2021/04/20 11:06:06;;;;;;;4.35;2.85;;;16.80;72.10;;;;;;5014201;28;20046;-74
2021/04/20 11:08:48;;;;;;;4.50;2.42;;;16.80;72.20;;;;;;5015337;28;20029;-76
2021/04/20 11:11:27;;;;;;;6.20;2.90;;;16.70;72.90;;;;;;5009399;28;20022;-79
2021/04/20 11:13:54;;;;;;;3.90;2.67;;;16.60;73.90;;;;;;5008878;28;20022;-79
2021/04/20 11:16:33;;;;;;;5.32;2.58;;;16.50;74.70;;;;;;5020708;28;20415;-76
2021/04/20 11:19:06;;;;;;;4.45;2.30;;;16.50;75.20;;;;;;5011587;28;20030;-78
2021/04/20 11:21:39;;;;;;;5.82;2.30;;;16.40;74.80;;;;;;5016887;28;20392;-83
2021/04/20 11:24:24;;;;;;;4.90;2.28;;;16.30;75.10;;;;;;5008669;28;20087;-79
2021/04/20 11:26:58;;;;;;;5.95;2.90;;;16.20;76.00;;;;;;5010571;28;20120;-85
2021/04/20 11:29:47;;;;;;;4.13;2.85;;;16.10;76.40;;;;;;5006607;28;20116;-83
2021/04/20 11:32:21;;;;;;;7.30;3.05;;;16.10;77.10;;;;;;5010626;28;20029;-84
2021/04/20 11:34:54;;;;;;;6.65;3.78;;;15.90;77.00;;;;;;5008511;28;20022;-83
2021/04/20 11:37:24;;;;;;;5.78;2.53;;;15.90;76.90;;;;;;5010170;28;20065;-81
2021/04/20 11:40:15;;;;;;;7.43;4.15;;;15.80;77.50;;;;;;5002818;28;20028;-82
2021/04/20 11:42:44;;;;;;;8.20;3.50;;;15.90;77.90;;;;;;5008986;28;20050;-82
2021/04/20 11:45:27;;;;;;;6.35;2.85;;;15.80;78.00;;;;;;5012841;28;20030;-85
2021/04/20 11:48:01;;;;;;;6.32;2.90;;;15.80;76.80;;;;;;5006168;28;20072;-80
2021/04/20 11:50:33;;;;;;;5.45;3.35;;;15.90;77.20;;;;;;5004347;28;20083;-81
2021/04/20 11:53:06;;;;;;;8.05;3.60;;;15.90;77.30;;;;;;5005975;28;20356;-83
2021/04/20 11:55:42;;;;;;;7.03;3.10;;;16.00;77.30;;;;;;5004547;28;20037;-79
2021/04/20 11:58:23;;;;;;;6.43;2.80;;;16.00;77.00;;;;;;5003999;28;20488;-80
2021/04/20 12:00:58;;;;;;;8.10;3.10;;;15.90;77.60;;;;;;5002660;28;20026;-81
2021/04/20 12:03:28;;;;;;;6.95;3.78;;;15.90;77.90;;;;;;5009100;28;20140;-80
2021/04/20 12:05:58;;;;;;;8.93;3.70;;;15.90;78.70;;;;;;5016619;28;20034;-78
2021/04/20 12:08:36;;;;;;;5.28;3.08;;;15.80;78.80;;;;;;5017902;28;20082;-79
2021/04/20 12:11:08;;;;;;;6.68;2.70;;;15.70;79.00;;;;;;5009846;28;20376;-82
2021/04/20 12:13:40;;;;;;;4.25;2.90;;;15.60;78.90;;;;;;5008962;28;20496;-78
2021/04/20 12:16:11;;;;;;;10.27;3.50;;;15.70;78.80;;;;;;5019498;28;20211;-77
2021/04/20 12:18:47;;;;;;;6.78;3.15;;;15.80;78.20;;;;;;5008337;28;20168;-82
2021/04/20 12:21:27;;;;;;;4.82;3.08;;;15.80;78.00;;;;;;5007685;28;20041;-81
2021/04/20 12:23:59;;;;;;;4.90;2.45;;;15.70;77.90;;;;;;5009382;28;20540;-87
2021/04/20 12:26:29;;;;;;;4.22;2.78;;;15.80;77.70;;;;;;5011171;28;20038;-84
2021/04/20 12:29:00;;;;;;;5.60;2.83;;;15.60;78.30;;;;;;5010360;28;20108;-85
2021/04/20 12:31:29;;;;;;;6.00;3.20;;;15.50;78.90;;;;;;5011914;28;20049;-86
2021/04/20 12:33:57;;;;;;;7.38;2.58;;;15.40;79.30;;;;;;5015254;28;20052;-87
2021/04/20 12:36:34;;;;;;;5.90;3.00;;;15.20;80.00;;;;;;5014199;28;20040;-86
2021/04/20 12:39:04;;;;;;;4.22;2.40;;;15.10;80.40;;;;;;5014424;28;20037;-85
2021/04/20 12:41:33;;;;;;;7.40;2.92;;;15.10;80.60;;;;;;5017624;28;20018;-84
2021/04/20 12:44:14;;;;;;;11.13;3.90;;;15.10;80.80;;;;;;5023430;28;20029;-87
2021/04/20 12:46:43;;;;;;;4.75;2.90;;;15.10;80.90;;;;;;5017401;28;20030;-86
2021/04/20 12:49:14;;;;;;;5.53;3.22;;;15.00;81.20;;;;;;5015296;28;20024;-85
2021/04/20 12:51:43;;;;;;;7.43;3.45;;;14.90;81.30;;;;;;5011129;28;20026;-85
2021/04/20 12:54:20;;;;;;;6.28;3.42;;;14.90;81.00;;;;;;5017769;28;20494;-85
2021/04/20 12:56:53;;;;;;;8.55;2.95;;;14.80;81.40;;;;;;5018345;28;20068;-84
2021/04/20 12:59:23;;;;;;;5.13;2.55;;;14.80;81.60;;;;;;5018215;28;20037;-84
2021/04/20 13:01:54;;;;;;;5.68;3.53;;;14.70;82.00;;;;;;5019633;28;20026;-85
2021/04/20 13:04:36;;;;;;;5.00;2.97;;;14.80;82.10;;;;;;5014548;28;20104;-84
2021/04/20 13:07:05;;;;;;;7.60;3.05;;;14.70;82.80;;;;;;5012191;28;20088;-84
2021/04/20 13:09:40;;;;;;;7.18;3.15;;;14.70;83.00;;;;;;5011374;28;20065;-83
2021/04/20 13:12:14;;;;;;;7.85;3.20;;;14.60;83.00;;;;;;5003727;28;20041;-82
2021/04/20 13:14:47;;;;;;;4.32;3.00;;;14.50;83.20;;;;;;5011262;28;20086;-84
2021/04/20 13:17:23;;;;;;;7.15;3.45;;;14.50;83.50;;;;;;5013059;28;20479;-83
2021/04/20 13:20:00;;;;;;;5.75;3.05;;;14.40;84.10;;;;;;5011478;28;20073;-82
2021/04/20 13:22:28;;;;;;;6.35;2.88;;;14.40;83.70;;;;;;5014188;28;20034;-83
2021/04/20 13:25:04;;;;;;;7.05;3.65;;;14.40;84.20;;;;;;5013515;28;20057;-83
2021/04/20 13:27:32;;;;;;;;;;;14.30;84.10;;;;;;5018698;28;20037;-83